sensor_id;sensor_type;location;lat;lon;timestamp;P1;durP1;ratioP1;P2;durP2;ratioP2
12482;SDS011;6306;47.134;15.344;2023-03-02T00:00:40;21.93;;;14.50;;
12482;SDS011;6306;47.134;15.344;2023-03-02T00:03:07;24.50;;;13.97;;
12482;SDS011;6306;47.134;15.344;2023-03-02T00:05:34;19.50;;;13.00;;
12482;SDS011;6306;47.134;15.344;2023-03-02T00:08:00;21.97;;;12.53;;
12482;SDS011;6306;47.134;15.344;2023-03-02T00:10:27;19.23;;;13.10;;
12482;SDS011;6306;47.134;15.344;2023-03-02T00:12:53;24.10;;;13.00;;
12482;SDS011;6306;47.134;15.344;2023-03-02T00:15:19;22.03;;;14.20;;
12482;SDS011;6306;47.134;15.344;2023-03-02T00:17:45;25.30;;;15.47;;
12482;SDS011;6306;47.134;15.344;2023-03-02T00:20:12;19.87;;;12.47;;
12482;SDS011;6306;47.134;15.344;2023-03-02T00:22:38;19.63;;;14.37;;
12482;SDS011;6306;47.134;15.344;2023-03-02T00:25:04;18.67;;;14.27;;
12482;SDS011;6306;47.134;15.344;2023-03-02T00:27:31;16.70;;;12.27;;
12482;SDS011;6306;47.134;15.344;2023-03-02T00:29:57;18.40;;;12.80;;
12482;SDS011;6306;47.134;15.344;2023-03-02T00:32:23;19.63;;;12.40;;
12482;SDS011;6306;47.134;15.344;2023-03-02T00:34:49;18.10;;;12.60;;
12482;SDS011;6306;47.134;15.344;2023-03-02T00:37:15;20.20;;;11.40;;
12482;SDS011;6306;47.134;15.344;2023-03-02T00:39:41;21.60;;;13.33;;
12482;SDS011;6306;47.134;15.344;2023-03-02T00:42:08;18.43;;;13.30;;
12482;SDS011;6306;47.134;15.344;2023-03-02T00:44:34;21.40;;;11.57;;
12482;SDS011;6306;47.134;15.344;2023-03-02T00:47:00;15.50;;;10.70;;
12482;SDS011;6306;47.134;15.344;2023-03-02T00:49:26;24.83;;;12.37;;
12482;SDS011;6306;47.134;15.344;2023-03-02T00:51:52;21.73;;;13.60;;
12482;SDS011;6306;47.134;15.344;2023-03-02T00:54:18;20.73;;;12.80;;
12482;SDS011;6306;47.134;15.344;2023-03-02T00:56:44;19.53;;;13.00;;
12482;SDS011;6306;47.134;15.344;2023-03-02T00:59:11;21.17;;;12.23;;
12482;SDS011;6306;47.134;15.344;2023-03-02T01:01:55;18.60;;;11.60;;
12482;SDS011;6306;47.134;15.344;2023-03-02T01:04:25;15.87;;;10.40;;
12482;SDS011;6306;47.134;15.344;2023-03-02T01:06:58;19.33;;;11.87;;
12482;SDS011;6306;47.134;15.344;2023-03-02T01:09:24;18.73;;;12.10;;
12482;SDS011;6306;47.134;15.344;2023-03-02T01:11:51;18.80;;;11.37;;
12482;SDS011;6306;47.134;15.344;2023-03-02T01:14:17;21.40;;;12.83;;
12482;SDS011;6306;47.134;15.344;2023-03-02T01:16:43;23.83;;;13.00;;
12482;SDS011;6306;47.134;15.344;2023-03-02T01:19:11;20.00;;;13.40;;
12482;SDS011;6306;47.134;15.344;2023-03-02T01:21:37;17.87;;;11.40;;
12482;SDS011;6306;47.134;15.344;2023-03-02T01:24:03;19.63;;;11.23;;
12482;SDS011;6306;47.134;15.344;2023-03-02T01:26:29;16.23;;;11.33;;
12482;SDS011;6306;47.134;15.344;2023-03-02T01:28:55;16.73;;;10.63;;
12482;SDS011;6306;47.134;15.344;2023-03-02T01:31:21;18.33;;;10.63;;
12482;SDS011;6306;47.134;15.344;2023-03-02T01:33:48;16.13;;;11.30;;
12482;SDS011;6306;47.134;15.344;2023-03-02T01:36:14;20.40;;;11.30;;
12482;SDS011;6306;47.134;15.344;2023-03-02T01:38:40;18.03;;;11.83;;
12482;SDS011;6306;47.134;15.344;2023-03-02T01:41:06;21.93;;;12.10;;
12482;SDS011;6306;47.134;15.344;2023-03-02T01:43:32;15.93;;;12.83;;
12482;SDS011;6306;47.134;15.344;2023-03-02T01:46:19;17.63;;;11.47;;
12482;SDS011;6306;47.134;15.344;2023-03-02T01:48:45;20.13;;;12.77;;
12482;SDS011;6306;47.134;15.344;2023-03-02T01:51:15;18.63;;;12.57;;
12482;SDS011;6306;47.134;15.344;2023-03-02T01:53:42;21.80;;;12.23;;
12482;SDS011;6306;47.134;15.344;2023-03-02T01:56:20;15.27;;;10.67;;
12482;SDS011;6306;47.134;15.344;2023-03-02T01:58:50;18.33;;;10.53;;
12482;SDS011;6306;47.134;15.344;2023-03-02T02:01:17;20.20;;;10.63;;
12482;SDS011;6306;47.134;15.344;2023-03-02T02:03:44;17.00;;;9.90;;
12482;SDS011;6306;47.134;15.344;2023-03-02T02:06:14;20.00;;;11.37;;
12482;SDS011;6306;47.134;15.344;2023-03-02T02:08:42;20.30;;;11.80;;
12482;SDS011;6306;47.134;15.344;2023-03-02T02:11:09;23.93;;;11.07;;
12482;SDS011;6306;47.134;15.344;2023-03-02T02:13:35;20.27;;;12.20;;
12482;SDS011;6306;47.134;15.344;2023-03-02T02:16:01;18.27;;;11.40;;
12482;SDS011;6306;47.134;15.344;2023-03-02T02:18:27;17.57;;;12.20;;
12482;SDS011;6306;47.134;15.344;2023-03-02T02:20:53;17.00;;;12.00;;
12482;SDS011;6306;47.134;15.344;2023-03-02T02:23:24;15.33;;;11.00;;
12482;SDS011;6306;47.134;15.344;2023-03-02T02:28:23;21.53;;;11.90;;
12482;SDS011;6306;47.134;15.344;2023-03-02T02:30:50;16.70;;;10.70;;
12482;SDS011;6306;47.134;15.344;2023-03-02T02:33:19;22.27;;;11.27;;
12482;SDS011;6306;47.134;15.344;2023-03-02T02:35:46;12.97;;;8.93;;
12482;SDS011;6306;47.134;15.344;2023-03-02T02:38:14;21.40;;;12.30;;
12482;SDS011;6306;47.134;15.344;2023-03-02T02:40:49;15.43;;;10.60;;
12482;SDS011;6306;47.134;15.344;2023-03-02T02:43:18;22.13;;;12.13;;
12482;SDS011;6306;47.134;15.344;2023-03-02T02:45:45;14.60;;;10.83;;
12482;SDS011;6306;47.134;15.344;2023-03-02T02:48:14;23.13;;;11.97;;
12482;SDS011;6306;47.134;15.344;2023-03-02T02:50:41;18.17;;;11.07;;
12482;SDS011;6306;47.134;15.344;2023-03-02T02:55:36;15.37;;;11.20;;
12482;SDS011;6306;47.134;15.344;2023-03-02T02:58:05;15.83;;;10.37;;
12482;SDS011;6306;47.134;15.344;2023-03-02T03:00:34;16.27;;;11.00;;
12482;SDS011;6306;47.134;15.344;2023-03-02T03:03:04;19.40;;;11.23;;
12482;SDS011;6306;47.134;15.344;2023-03-02T03:05:31;17.83;;;10.80;;
12482;SDS011;6306;47.134;15.344;2023-03-02T03:08:07;17.20;;;10.67;;
12482;SDS011;6306;47.134;15.344;2023-03-02T03:10:33;18.30;;;11.57;;
12482;SDS011;6306;47.134;15.344;2023-03-02T03:13:04;18.83;;;10.77;;
12482;SDS011;6306;47.134;15.344;2023-03-02T03:15:30;18.33;;;11.67;;
12482;SDS011;6306;47.134;15.344;2023-03-02T03:17:57;20.33;;;12.60;;
12482;SDS011;6306;47.134;15.344;2023-03-02T03:20:23;17.57;;;11.73;;
12482;SDS011;6306;47.134;15.344;2023-03-02T03:22:50;15.30;;;9.60;;
12482;SDS011;6306;47.134;15.344;2023-03-02T03:25:20;21.27;;;11.33;;
12482;SDS011;6306;47.134;15.344;2023-03-02T03:27:46;21.03;;;12.80;;
12482;SDS011;6306;47.134;15.344;2023-03-02T03:30:13;17.60;;;12.50;;
12482;SDS011;6306;47.134;15.344;2023-03-02T03:32:39;16.83;;;10.97;;
12482;SDS011;6306;47.134;15.344;2023-03-02T03:35:05;15.00;;;10.30;;
12482;SDS011;6306;47.134;15.344;2023-03-02T03:37:36;18.00;;;9.80;;
12482;SDS011;6306;47.134;15.344;2023-03-02T03:40:02;14.23;;;10.07;;
12482;SDS011;6306;47.134;15.344;2023-03-02T03:42:29;14.63;;;10.17;;
12482;SDS011;6306;47.134;15.344;2023-03-02T03:44:56;15.53;;;9.53;;
12482;SDS011;6306;47.134;15.344;2023-03-02T03:47:22;17.93;;;10.03;;
12482;SDS011;6306;47.134;15.344;2023-03-02T03:49:48;13.30;;;9.53;;
12482;SDS011;6306;47.134;15.344;2023-03-02T03:52:14;12.37;;;8.90;;
12482;SDS011;6306;47.134;15.344;2023-03-02T03:54:40;12.00;;;8.17;;
12482;SDS011;6306;47.134;15.344;2023-03-02T03:57:06;16.23;;;9.40;;
12482;SDS011;6306;47.134;15.344;2023-03-02T03:59:34;18.60;;;9.40;;
12482;SDS011;6306;47.134;15.344;2023-03-02T04:02:00;14.40;;;9.33;;
12482;SDS011;6306;47.134;15.344;2023-03-02T04:04:28;14.73;;;10.17;;
12482;SDS011;6306;47.134;15.344;2023-03-02T04:06:54;15.90;;;10.43;;
12482;SDS011;6306;47.134;15.344;2023-03-02T04:09:20;10.50;;;8.80;;
12482;SDS011;6306;47.134;15.344;2023-03-02T04:11:47;16.37;;;9.80;;
12482;SDS011;6306;47.134;15.344;2023-03-02T04:14:14;15.13;;;9.27;;
12482;SDS011;6306;47.134;15.344;2023-03-02T04:16:40;14.93;;;9.67;;
12482;SDS011;6306;47.134;15.344;2023-03-02T04:19:06;15.07;;;9.17;;
12482;SDS011;6306;47.134;15.344;2023-03-02T04:21:34;13.77;;;9.20;;
12482;SDS011;6306;47.134;15.344;2023-03-02T04:24:00;18.07;;;10.33;;
12482;SDS011;6306;47.134;15.344;2023-03-02T04:26:26;20.40;;;10.70;;
12482;SDS011;6306;47.134;15.344;2023-03-02T04:28:52;17.37;;;9.67;;
12482;SDS011;6306;47.134;15.344;2023-03-02T04:31:18;16.20;;;8.90;;
12482;SDS011;6306;47.134;15.344;2023-03-02T04:33:44;16.40;;;10.37;;
12482;SDS011;6306;47.134;15.344;2023-03-02T04:36:10;13.57;;;8.63;;
12482;SDS011;6306;47.134;15.344;2023-03-02T04:38:37;16.20;;;10.47;;
12482;SDS011;6306;47.134;15.344;2023-03-02T04:41:03;17.30;;;12.00;;
12482;SDS011;6306;47.134;15.344;2023-03-02T04:43:29;15.53;;;9.80;;
12482;SDS011;6306;47.134;15.344;2023-03-02T04:45:56;15.03;;;8.90;;
12482;SDS011;6306;47.134;15.344;2023-03-02T04:48:22;20.33;;;9.53;;
12482;SDS011;6306;47.134;15.344;2023-03-02T04:50:48;17.13;;;11.13;;
12482;SDS011;6306;47.134;15.344;2023-03-02T04:53:14;14.63;;;9.17;;
12482;SDS011;6306;47.134;15.344;2023-03-02T04:55:41;14.20;;;9.90;;
12482;SDS011;6306;47.134;15.344;2023-03-02T04:58:07;19.80;;;12.00;;
12482;SDS011;6306;47.134;15.344;2023-03-02T05:00:33;17.33;;;11.60;;
12482;SDS011;6306;47.134;15.344;2023-03-02T05:03:00;15.50;;;10.30;;
12482;SDS011;6306;47.134;15.344;2023-03-02T05:05:27;21.43;;;11.90;;
12482;SDS011;6306;47.134;15.344;2023-03-02T05:07:53;20.00;;;11.20;;
12482;SDS011;6306;47.134;15.344;2023-03-02T05:10:19;14.67;;;10.97;;
12482;SDS011;6306;47.134;15.344;2023-03-02T05:12:46;11.90;;;9.33;;
12482;SDS011;6306;47.134;15.344;2023-03-02T05:15:21;11.90;;;9.00;;
12482;SDS011;6306;47.134;15.344;2023-03-02T05:17:47;11.77;;;9.57;;
12482;SDS011;6306;47.134;15.344;2023-03-02T05:20:14;18.80;;;10.63;;
12482;SDS011;6306;47.134;15.344;2023-03-02T05:22:40;14.73;;;9.30;;
12482;SDS011;6306;47.134;15.344;2023-03-02T05:25:06;19.50;;;10.47;;
12482;SDS011;6306;47.134;15.344;2023-03-02T05:27:32;15.97;;;9.80;;
12482;SDS011;6306;47.134;15.344;2023-03-02T05:29:58;26.67;;;12.70;;
12482;SDS011;6306;47.134;15.344;2023-03-02T05:32:24;22.03;;;11.03;;
12482;SDS011;6306;47.134;15.344;2023-03-02T05:34:51;16.03;;;9.90;;
12482;SDS011;6306;47.134;15.344;2023-03-02T05:37:17;22.13;;;11.70;;
12482;SDS011;6306;47.134;15.344;2023-03-02T05:39:43;17.40;;;11.80;;
12482;SDS011;6306;47.134;15.344;2023-03-02T05:42:09;21.43;;;10.60;;
12482;SDS011;6306;47.134;15.344;2023-03-02T05:44:35;14.03;;;9.00;;
12482;SDS011;6306;47.134;15.344;2023-03-02T05:47:01;23.97;;;10.63;;
12482;SDS011;6306;47.134;15.344;2023-03-02T05:49:27;20.47;;;12.30;;
12482;SDS011;6306;47.134;15.344;2023-03-02T05:51:53;17.07;;;11.77;;
12482;SDS011;6306;47.134;15.344;2023-03-02T05:54:19;15.67;;;9.40;;
12482;SDS011;6306;47.134;15.344;2023-03-02T05:56:46;20.30;;;12.50;;
12482;SDS011;6306;47.134;15.344;2023-03-02T05:59:12;21.23;;;11.83;;
12482;SDS011;6306;47.134;15.344;2023-03-02T06:01:38;22.23;;;12.57;;
12482;SDS011;6306;47.134;15.344;2023-03-02T06:04:04;20.70;;;10.60;;
12482;SDS011;6306;47.134;15.344;2023-03-02T06:06:30;20.83;;;12.27;;
12482;SDS011;6306;47.134;15.344;2023-03-02T06:08:56;26.67;;;13.33;;
12482;SDS011;6306;47.134;15.344;2023-03-02T06:11:22;16.23;;;10.13;;
12482;SDS011;6306;47.134;15.344;2023-03-02T06:13:48;19.23;;;13.30;;
12482;SDS011;6306;47.134;15.344;2023-03-02T06:16:14;20.40;;;11.47;;
12482;SDS011;6306;47.134;15.344;2023-03-02T06:18:40;16.67;;;10.37;;
12482;SDS011;6306;47.134;15.344;2023-03-02T06:21:07;19.20;;;11.10;;
12482;SDS011;6306;47.134;15.344;2023-03-02T06:23:33;23.50;;;11.73;;
12482;SDS011;6306;47.134;15.344;2023-03-02T06:25:59;21.17;;;9.43;;
12482;SDS011;6306;47.134;15.344;2023-03-02T06:28:25;15.30;;;10.13;;
12482;SDS011;6306;47.134;15.344;2023-03-02T06:30:51;18.00;;;11.07;;
12482;SDS011;6306;47.134;15.344;2023-03-02T06:33:17;22.83;;;10.00;;
12482;SDS011;6306;47.134;15.344;2023-03-02T06:35:45;18.83;;;9.30;;
12482;SDS011;6306;47.134;15.344;2023-03-02T06:38:11;18.03;;;10.90;;
12482;SDS011;6306;47.134;15.344;2023-03-02T06:40:37;21.50;;;12.10;;
12482;SDS011;6306;47.134;15.344;2023-03-02T06:43:03;21.27;;;12.17;;
12482;SDS011;6306;47.134;15.344;2023-03-02T06:45:29;23.73;;;12.40;;
12482;SDS011;6306;47.134;15.344;2023-03-02T06:47:57;13.90;;;9.93;;
12482;SDS011;6306;47.134;15.344;2023-03-02T06:50:23;24.73;;;11.20;;
12482;SDS011;6306;47.134;15.344;2023-03-02T06:52:49;19.23;;;11.07;;
12482;SDS011;6306;47.134;15.344;2023-03-02T06:55:15;21.50;;;11.67;;
12482;SDS011;6306;47.134;15.344;2023-03-02T06:57:42;19.73;;;13.20;;
12482;SDS011;6306;47.134;15.344;2023-03-02T07:00:08;14.47;;;10.23;;
12482;SDS011;6306;47.134;15.344;2023-03-02T07:02:38;20.97;;;11.17;;
12482;SDS011;6306;47.134;15.344;2023-03-02T07:05:04;16.33;;;10.13;;
12482;SDS011;6306;47.134;15.344;2023-03-02T07:07:30;25.90;;;11.77;;
12482;SDS011;6306;47.134;15.344;2023-03-02T07:09:56;19.10;;;10.30;;
12482;SDS011;6306;47.134;15.344;2023-03-02T07:12:23;21.40;;;12.17;;
12482;SDS011;6306;47.134;15.344;2023-03-02T07:14:49;21.33;;;10.50;;
12482;SDS011;6306;47.134;15.344;2023-03-02T07:17:15;24.93;;;12.00;;
12482;SDS011;6306;47.134;15.344;2023-03-02T07:19:41;20.90;;;11.10;;
12482;SDS011;6306;47.134;15.344;2023-03-02T07:22:07;19.80;;;11.67;;
12482;SDS011;6306;47.134;15.344;2023-03-02T07:24:33;21.60;;;10.80;;
12482;SDS011;6306;47.134;15.344;2023-03-02T07:26:59;19.87;;;11.23;;
12482;SDS011;6306;47.134;15.344;2023-03-02T07:29:25;17.33;;;11.93;;
12482;SDS011;6306;47.134;15.344;2023-03-02T07:31:51;23.50;;;12.53;;
12482;SDS011;6306;47.134;15.344;2023-03-02T07:34:21;19.63;;;11.67;;
12482;SDS011;6306;47.134;15.344;2023-03-02T07:36:48;15.90;;;11.90;;
12482;SDS011;6306;47.134;15.344;2023-03-02T07:39:14;21.90;;;13.10;;
12482;SDS011;6306;47.134;15.344;2023-03-02T07:41:40;19.73;;;11.37;;
12482;SDS011;6306;47.134;15.344;2023-03-02T07:44:06;18.63;;;11.83;;
12482;SDS011;6306;47.134;15.344;2023-03-02T07:46:32;18.30;;;11.63;;
12482;SDS011;6306;47.134;15.344;2023-03-02T07:48:58;17.43;;;12.10;;
12482;SDS011;6306;47.134;15.344;2023-03-02T07:51:24;23.43;;;12.27;;
12482;SDS011;6306;47.134;15.344;2023-03-02T07:53:50;18.70;;;12.43;;
12482;SDS011;6306;47.134;15.344;2023-03-02T07:56:16;17.40;;;11.70;;
12482;SDS011;6306;47.134;15.344;2023-03-02T07:58:42;18.43;;;9.90;;
12482;SDS011;6306;47.134;15.344;2023-03-02T08:01:09;21.13;;;13.60;;
12482;SDS011;6306;47.134;15.344;2023-03-02T08:03:35;18.57;;;11.60;;
12482;SDS011;6306;47.134;15.344;2023-03-02T08:06:05;17.20;;;11.77;;
12482;SDS011;6306;47.134;15.344;2023-03-02T08:08:31;16.40;;;12.40;;
12482;SDS011;6306;47.134;15.344;2023-03-02T08:11:07;20.03;;;12.13;;
12482;SDS011;6306;47.134;15.344;2023-03-02T08:13:33;24.30;;;11.90;;
12482;SDS011;6306;47.134;15.344;2023-03-02T08:16:00;16.80;;;11.10;;
12482;SDS011;6306;47.134;15.344;2023-03-02T08:18:26;20.77;;;12.00;;
12482;SDS011;6306;47.134;15.344;2023-03-02T08:20:52;21.60;;;12.97;;
12482;SDS011;6306;47.134;15.344;2023-03-02T08:23:19;22.53;;;12.43;;
12482;SDS011;6306;47.134;15.344;2023-03-02T08:25:45;21.30;;;11.00;;
12482;SDS011;6306;47.134;15.344;2023-03-02T08:28:11;20.63;;;10.93;;
12482;SDS011;6306;47.134;15.344;2023-03-02T08:30:37;17.80;;;10.43;;
12482;SDS011;6306;47.134;15.344;2023-03-02T08:33:03;18.30;;;12.03;;
12482;SDS011;6306;47.134;15.344;2023-03-02T08:35:29;24.23;;;13.90;;
12482;SDS011;6306;47.134;15.344;2023-03-02T08:37:56;21.23;;;12.03;;
12482;SDS011;6306;47.134;15.344;2023-03-02T08:40:23;18.20;;;11.03;;
12482;SDS011;6306;47.134;15.344;2023-03-02T08:42:49;19.17;;;13.40;;
12482;SDS011;6306;47.134;15.344;2023-03-02T08:45:21;20.40;;;12.30;;
12482;SDS011;6306;47.134;15.344;2023-03-02T08:47:47;20.83;;;13.27;;
12482;SDS011;6306;47.134;15.344;2023-03-02T08:50:13;14.57;;;10.67;;
12482;SDS011;6306;47.134;15.344;2023-03-02T08:52:39;17.93;;;11.67;;
12482;SDS011;6306;47.134;15.344;2023-03-02T08:55:06;20.63;;;12.10;;
12482;SDS011;6306;47.134;15.344;2023-03-02T08:57:32;17.43;;;11.77;;
12482;SDS011;6306;47.134;15.344;2023-03-02T08:59:58;20.30;;;11.87;;
12482;SDS011;6306;47.134;15.344;2023-03-02T09:02:25;20.13;;;11.60;;
12482;SDS011;6306;47.134;15.344;2023-03-02T09:04:51;17.20;;;10.90;;
12482;SDS011;6306;47.134;15.344;2023-03-02T09:07:17;16.47;;;11.57;;
12482;SDS011;6306;47.134;15.344;2023-03-02T09:09:43;19.17;;;11.50;;
12482;SDS011;6306;47.134;15.344;2023-03-02T09:12:09;18.43;;;11.17;;
12482;SDS011;6306;47.134;15.344;2023-03-02T09:14:35;19.57;;;11.50;;
12482;SDS011;6306;47.134;15.344;2023-03-02T09:17:01;15.33;;;11.10;;
12482;SDS011;6306;47.134;15.344;2023-03-02T09:19:28;17.10;;;13.70;;
12482;SDS011;6306;47.134;15.344;2023-03-02T09:21:54;16.20;;;10.77;;
12482;SDS011;6306;47.134;15.344;2023-03-02T09:24:20;20.20;;;10.80;;
12482;SDS011;6306;47.134;15.344;2023-03-02T09:26:46;17.37;;;10.30;;
12482;SDS011;6306;47.134;15.344;2023-03-02T09:29:12;18.20;;;12.07;;
12482;SDS011;6306;47.134;15.344;2023-03-02T09:31:38;18.97;;;11.47;;
12482;SDS011;6306;47.134;15.344;2023-03-02T09:34:04;16.97;;;10.37;;
12482;SDS011;6306;47.134;15.344;2023-03-02T09:36:30;21.27;;;14.13;;
12482;SDS011;6306;47.134;15.344;2023-03-02T09:38:56;17.20;;;11.47;;
12482;SDS011;6306;47.134;15.344;2023-03-02T09:41:27;20.97;;;11.47;;
12482;SDS011;6306;47.134;15.344;2023-03-02T09:44:12;20.73;;;12.77;;
12482;SDS011;6306;47.134;15.344;2023-03-02T09:46:45;16.10;;;10.10;;
12482;SDS011;6306;47.134;15.344;2023-03-02T09:54:29;17.90;;;11.00;;
12482;SDS011;6306;47.134;15.344;2023-03-02T09:56:56;13.00;;;9.37;;
12482;SDS011;6306;47.134;15.344;2023-03-02T09:59:23;15.20;;;11.00;;
12482;SDS011;6306;47.134;15.344;2023-03-02T10:01:53;13.57;;;9.40;;
12482;SDS011;6306;47.134;15.344;2023-03-02T10:06:54;14.33;;;9.83;;
12482;SDS011;6306;47.134;15.344;2023-03-02T10:09:20;15.83;;;9.60;;
12482;SDS011;6306;47.134;15.344;2023-03-02T10:19:13;15.50;;;8.47;;
12482;SDS011;6306;47.134;15.344;2023-03-02T10:26:40;11.17;;;8.00;;
12482;SDS011;6306;47.134;15.344;2023-03-02T10:31:32;12.67;;;7.50;;
12482;SDS011;6306;47.134;15.344;2023-03-02T10:33:59;11.27;;;8.60;;
12482;SDS011;6306;47.134;15.344;2023-03-02T10:36:43;12.60;;;8.27;;
12482;SDS011;6306;47.134;15.344;2023-03-02T10:39:13;11.93;;;7.33;;
12482;SDS011;6306;47.134;15.344;2023-03-02T10:41:47;14.90;;;7.40;;
12482;SDS011;6306;47.134;15.344;2023-03-02T10:44:18;8.57;;;6.80;;
12482;SDS011;6306;47.134;15.344;2023-03-02T10:46:45;13.80;;;8.17;;
12482;SDS011;6306;47.134;15.344;2023-03-02T10:49:30;13.17;;;7.10;;
12482;SDS011;6306;47.134;15.344;2023-03-02T10:54:38;10.67;;;6.93;;
12482;SDS011;6306;47.134;15.344;2023-03-02T10:57:22;18.80;;;8.67;;
12482;SDS011;6306;47.134;15.344;2023-03-02T10:59:51;17.00;;;8.57;;
12482;SDS011;6306;47.134;15.344;2023-03-02T11:04:43;11.90;;;7.30;;
12482;SDS011;6306;47.134;15.344;2023-03-02T11:07:12;9.83;;;5.90;;
12482;SDS011;6306;47.134;15.344;2023-03-02T11:09:39;15.10;;;6.87;;
12482;SDS011;6306;47.134;15.344;2023-03-02T11:12:11;10.93;;;6.73;;
12482;SDS011;6306;47.134;15.344;2023-03-02T11:14:39;18.37;;;7.43;;
12482;SDS011;6306;47.134;15.344;2023-03-02T11:17:28;19.97;;;7.50;;
12482;SDS011;6306;47.134;15.344;2023-03-02T11:19:52;13.10;;;6.97;;
12482;SDS011;6306;47.134;15.344;2023-03-02T11:22:38;17.33;;;8.87;;
12482;SDS011;6306;47.134;15.344;2023-03-02T11:25:07;8.93;;;6.13;;
12482;SDS011;6306;47.134;15.344;2023-03-02T11:27:38;16.63;;;7.67;;
12482;SDS011;6306;47.134;15.344;2023-03-02T11:30:14;13.17;;;8.30;;
12482;SDS011;6306;47.134;15.344;2023-03-02T11:37:51;14.00;;;8.90;;
12482;SDS011;6306;47.134;15.344;2023-03-02T11:40:35;8.00;;;6.13;;
12482;SDS011;6306;47.134;15.344;2023-03-02T11:43:04;14.70;;;9.20;;
12482;SDS011;6306;47.134;15.344;2023-03-02T11:45:41;17.87;;;9.60;;
12482;SDS011;6306;47.134;15.344;2023-03-02T11:48:28;8.60;;;6.77;;
12482;SDS011;6306;47.134;15.344;2023-03-02T11:50:58;10.17;;;7.33;;
12482;SDS011;6306;47.134;15.344;2023-03-02T11:53:26;13.40;;;9.00;;
12482;SDS011;6306;47.134;15.344;2023-03-02T11:55:54;11.53;;;7.10;;
12482;SDS011;6306;47.134;15.344;2023-03-02T11:58:21;12.97;;;8.17;;
12482;SDS011;6306;47.134;15.344;2023-03-02T12:00:48;14.10;;;8.20;;
12482;SDS011;6306;47.134;15.344;2023-03-02T12:05:42;13.37;;;8.30;;
12482;SDS011;6306;47.134;15.344;2023-03-02T12:13:23;10.70;;;7.83;;
12482;SDS011;6306;47.134;15.344;2023-03-02T12:15:50;12.00;;;8.27;;
12482;SDS011;6306;47.134;15.344;2023-03-02T12:21:06;9.00;;;8.10;;
12482;SDS011;6306;47.134;15.344;2023-03-02T12:23:33;14.70;;;8.10;;
12482;SDS011;6306;47.134;15.344;2023-03-02T12:26:01;11.17;;;7.73;;
12482;SDS011;6306;47.134;15.344;2023-03-02T12:31:10;14.03;;;7.87;;
12482;SDS011;6306;47.134;15.344;2023-03-02T12:33:46;13.90;;;9.07;;
12482;SDS011;6306;47.134;15.344;2023-03-02T12:36:14;12.63;;;8.70;;
12482;SDS011;6306;47.134;15.344;2023-03-02T12:38:42;14.30;;;9.73;;
12482;SDS011;6306;47.134;15.344;2023-03-02T12:46:42;14.17;;;8.40;;
12482;SDS011;6306;47.134;15.344;2023-03-02T12:51:57;15.30;;;7.97;;
12482;SDS011;6306;47.134;15.344;2023-03-02T12:54:31;13.20;;;9.17;;
12482;SDS011;6306;47.134;15.344;2023-03-02T12:57:02;10.93;;;7.47;;
12482;SDS011;6306;47.134;15.344;2023-03-02T12:59:28;11.07;;;8.40;;
12482;SDS011;6306;47.134;15.344;2023-03-02T13:02:14;10.30;;;7.80;;
12482;SDS011;6306;47.134;15.344;2023-03-02T13:04:41;11.47;;;7.47;;
12482;SDS011;6306;47.134;15.344;2023-03-02T13:07:14;11.30;;;8.90;;
12482;SDS011;6306;47.134;15.344;2023-03-02T13:09:40;12.10;;;7.50;;
12482;SDS011;6306;47.134;15.344;2023-03-02T13:12:11;12.20;;;8.10;;
12482;SDS011;6306;47.134;15.344;2023-03-02T13:14:38;18.17;;;9.63;;
12482;SDS011;6306;47.134;15.344;2023-03-02T13:17:05;9.60;;;7.73;;
12482;SDS011;6306;47.134;15.344;2023-03-02T13:19:31;13.47;;;8.57;;
12482;SDS011;6306;47.134;15.344;2023-03-02T13:21:58;11.20;;;7.87;;
12482;SDS011;6306;47.134;15.344;2023-03-02T13:24:30;21.13;;;8.03;;
12482;SDS011;6306;47.134;15.344;2023-03-02T13:26:57;22.10;;;9.53;;
12482;SDS011;6306;47.134;15.344;2023-03-02T13:29:25;11.73;;;8.83;;
12482;SDS011;6306;47.134;15.344;2023-03-02T13:31:51;15.80;;;9.40;;
12482;SDS011;6306;47.134;15.344;2023-03-02T13:34:18;19.20;;;9.43;;
12482;SDS011;6306;47.134;15.344;2023-03-02T13:36:46;12.07;;;9.33;;
12482;SDS011;6306;47.134;15.344;2023-03-02T13:39:19;12.47;;;7.63;;
12482;SDS011;6306;47.134;15.344;2023-03-02T13:41:53;12.33;;;8.27;;
12482;SDS011;6306;47.134;15.344;2023-03-02T13:44:20;14.67;;;9.30;;
12482;SDS011;6306;47.134;15.344;2023-03-02T13:46:48;14.70;;;8.83;;
12482;SDS011;6306;47.134;15.344;2023-03-02T13:49:24;10.73;;;7.57;;
12482;SDS011;6306;47.134;15.344;2023-03-02T13:51:55;10.63;;;8.40;;
12482;SDS011;6306;47.134;15.344;2023-03-02T13:54:24;16.23;;;9.53;;
12482;SDS011;6306;47.134;15.344;2023-03-02T13:56:51;18.60;;;10.57;;
12482;SDS011;6306;47.134;15.344;2023-03-02T13:59:18;13.90;;;8.57;;
12482;SDS011;6306;47.134;15.344;2023-03-02T14:01:44;9.27;;;7.73;;
12482;SDS011;6306;47.134;15.344;2023-03-02T14:04:11;13.23;;;8.13;;
12482;SDS011;6306;47.134;15.344;2023-03-02T14:06:37;13.47;;;9.27;;
12482;SDS011;6306;47.134;15.344;2023-03-02T14:09:03;11.53;;;7.53;;
12482;SDS011;6306;47.134;15.344;2023-03-02T14:11:30;8.90;;;7.13;;
12482;SDS011;6306;47.134;15.344;2023-03-02T14:13:58;11.53;;;7.40;;
12482;SDS011;6306;47.134;15.344;2023-03-02T14:16:27;9.30;;;6.57;;
12482;SDS011;6306;47.134;15.344;2023-03-02T14:18:53;9.40;;;7.27;;
12482;SDS011;6306;47.134;15.344;2023-03-02T14:21:23;12.90;;;7.80;;
12482;SDS011;6306;47.134;15.344;2023-03-02T14:23:50;12.40;;;7.87;;
12482;SDS011;6306;47.134;15.344;2023-03-02T14:28:52;12.27;;;8.20;;
12482;SDS011;6306;47.134;15.344;2023-03-02T14:31:18;11.80;;;8.73;;
12482;SDS011;6306;47.134;15.344;2023-03-02T14:33:44;18.50;;;9.80;;
12482;SDS011;6306;47.134;15.344;2023-03-02T14:36:12;11.63;;;8.33;;
12482;SDS011;6306;47.134;15.344;2023-03-02T14:38:40;14.73;;;7.33;;
12482;SDS011;6306;47.134;15.344;2023-03-02T14:41:08;12.30;;;8.83;;
12482;SDS011;6306;47.134;15.344;2023-03-02T14:43:35;21.13;;;10.27;;
12482;SDS011;6306;47.134;15.344;2023-03-02T14:46:01;12.60;;;8.70;;
12482;SDS011;6306;47.134;15.344;2023-03-02T14:48:27;18.27;;;9.00;;
12482;SDS011;6306;47.134;15.344;2023-03-02T14:50:53;9.73;;;7.50;;
12482;SDS011;6306;47.134;15.344;2023-03-02T14:53:21;10.87;;;7.20;;
12482;SDS011;6306;47.134;15.344;2023-03-02T14:55:50;16.47;;;8.67;;
12482;SDS011;6306;47.134;15.344;2023-03-02T14:58:17;11.83;;;8.67;;
12482;SDS011;6306;47.134;15.344;2023-03-02T15:00:44;10.43;;;8.57;;
12482;SDS011;6306;47.134;15.344;2023-03-02T15:03:15;11.33;;;8.60;;
12482;SDS011;6306;47.134;15.344;2023-03-02T15:05:43;14.20;;;8.70;;
12482;SDS011;6306;47.134;15.344;2023-03-02T15:08:12;12.90;;;9.27;;
12482;SDS011;6306;47.134;15.344;2023-03-02T15:10:39;10.30;;;7.70;;
12482;SDS011;6306;47.134;15.344;2023-03-02T15:13:07;20.87;;;9.23;;
12482;SDS011;6306;47.134;15.344;2023-03-02T15:15:33;10.97;;;7.10;;
12482;SDS011;6306;47.134;15.344;2023-03-02T15:17:59;14.17;;;8.40;;
12482;SDS011;6306;47.134;15.344;2023-03-02T15:20:25;10.33;;;6.93;;
12482;SDS011;6306;47.134;15.344;2023-03-02T15:22:52;9.93;;;7.87;;
12482;SDS011;6306;47.134;15.344;2023-03-02T15:25:18;14.87;;;9.90;;
12482;SDS011;6306;47.134;15.344;2023-03-02T15:27:47;9.73;;;7.60;;
12482;SDS011;6306;47.134;15.344;2023-03-02T15:30:13;12.13;;;9.17;;
12482;SDS011;6306;47.134;15.344;2023-03-02T15:32:40;9.37;;;7.73;;